Latest Weather Observations for Cloncurry

IDQ60801

Issued at 9:35 am EST Wednesday 1 October 2014 (issued every 30 minutes, with the page automatically refreshed every 10 minutes)

About weather observations | Map of weather stations | Latest weather observations for QLD | Other Formats
Station Details ID: 029141 Name: CLONCURRY AIRPORT Lat: -20.67 Lon: 140.50 Height: 186.0 m
Data from the previous 72 hours. | See also: Recent months at Cloncurry
Date/Time
EST
Temp
°C
App
Temp
°C
Dew
Point
Rel
Hum
%
Delta-T
°C
Wind Press
QNH
hPa
Press
MSL
hPa
Rain
since 9 am
mm
Dir
 
Spd
km/h
Gust
km/h
Spd
kts
Gust
kts
01/09:30am 27.5 23.7 7.4 28 10.8 NE 17 24 9 13 1017.9 1017.0 0.0
01/09:00am 26.4 22.5 6.9 29 10.3 NE 17 22 9 12 1017.9 1017.0 0.0
01/08:30am 25.9 21.7 5.5 27 10.5 NE 17 22 9 12 1017.8 1016.9 0.0
01/08:00am 25.2 20.9 3.2 24 10.8 E 15 20 8 11 1017.5 1016.6 0.0
01/07:30am 24.3 20.5 1.9 23 10.7 ESE 11 15 6 8 1017.0 1016.1 0.0
01/07:00am 23.1 19.2 1.4 24 10.2 E 11 15 6 8 1016.5 1015.6 0.0
01/06:30am 22.4 18.2 1.4 25 9.8 SE 13 15 7 8 1016.2 1015.3 0.0
01/06:00am 22.8 18.5 1.2 24 10.1 SE 13 17 7 9 1015.8 1014.9 0.0
01/05:30am 22.4 18.5 1.4 25 9.8 SSE 11 15 6 8 1015.3 1014.4 0.0
01/05:00am 21.3 18.1 1.0 26 9.3 S 7 9 4 5 1015.0 1014.1 0.0
01/04:30am 23.0 18.7 0.8 23 10.3 ESE 13 17 7 9 1014.7 1013.7 0.0
01/04:00am 23.6 19.3 1.3 23 10.5 ESE 13 17 7 9 1014.3 1013.3 0.0
01/03:30am 24.7 19.7 1.6 22 11.0 E 17 22 9 12 1014.1 1013.1 0.0
01/03:00am 25.1 20.2 1.9 22 11.2 E 17 19 9 10 1014.0 1013.0 0.0
01/02:30am 25.6 20.4 2.3 22 11.3 E 19 22 10 12 1014.1 1013.1 0.0
01/02:00am 21.7 18.8 2.4 28 9.1 SSE 7 9 4 5 1014.2 1013.2 0.0
01/01:30am 22.1 19.3 3.3 29 9.1 S 7 9 4 5 1014.2 1013.2 0.0
01/01:00am 21.5 18.2 2.2 28 9.1 S 9 11 5 6 1014.2 1013.2 0.0
01/12:30am 22.7 19.7 1.7 25 9.9 SSE 7 11 4 6 1014.3 1013.3 0.0
01/12:00am 22.3 19.5 1.9 26 9.6 E 6 7 3 4 1014.3 1013.3 0.0
 
Date/Time
EST
Temp
°C
App
Temp
°C
Dew
Point
Rel
Hum
%
Delta-T
°C
Wind Press
QNH
hPa
Press
MSL
hPa
Rain
since 9 am
mm
Dir
 
Spd
km/h
Gust
km/h
Spd
kts
Gust
kts
30/11:30pm 23.4 22.0 3.4 27 9.8 CALM 0 0 0 0 1014.4 1013.4 0.0
30/11:00pm 23.6 21.9 1.9 24 10.3 CALM 0 0 0 0 1014.4 1013.4 0.0
30/10:30pm 23.5 21.7 1.2 23 10.5 CALM 0 0 0 0 1014.6 1013.6 0.0
30/10:00pm 25.2 22.4 2.0 22 11.2 ENE 6 7 3 4 1014.7 1013.7 0.0
30/09:30pm 28.0 25.0 2.2 19 12.7 ENE 7 7 4 4 1014.6 1013.6 0.0
30/09:00pm 28.7 25.3 2.1 18 13.2 ENE 9 11 5 6 1014.4 1013.4 0.0
30/08:30pm 29.2 25.4 1.7 17 13.6 ENE 11 13 6 7 1014.2 1013.2 0.0
30/08:00pm 30.7 26.2 2.0 16 14.4 E 15 17 8 9 1013.8 1012.8 0.0
30/07:30pm 31.3 27.2 2.5 16 14.6 E 13 15 7 8 1013.3 1012.4 0.0
30/07:00pm 32.6 28.6 2.6 15 15.4 E 13 15 7 8 1012.9 1012.0 0.0
30/06:30pm 34.0 28.7 2.8 14 16.2 ESE 20 26 11 14 1012.5 1011.6 0.0
30/06:00pm 34.6 29.7 4.2 15 16.2 E 19 22 10 12 1012.0 1011.1 0.0
30/05:30pm 35.2 31.7 5.6 16 16.1 ESE 13 20 7 11 1011.9 1011.0 0.0
30/05:00pm 35.3 33.2 6.6 17 15.9 NE 7 15 4 8 1011.7 1010.8 0.0
30/04:30pm 35.2 32.7 6.5 17 15.9 E 9 24 5 13 1011.8 1010.9 0.0
30/04:00pm 35.6 32.6 7.6 18 15.8 SE 13 26 7 14 1012.2 1011.3 0.0
30/03:30pm 34.9 31.0 7.1 18 15.5 E 17 24 9 13 1012.5 1011.6 0.0
30/03:00pm 35.2 31.2 8.1 19 15.4 E 19 30 10 16 1012.7 1011.8 0.0
30/02:30pm 34.4 32.3 9.6 22 14.3 WNW 11 17 6 9 1013.2 1012.3 0.0
30/02:00pm 33.8 31.3 9.8 23 13.9 ENE 13 19 7 10 1013.8 1012.8 0.0
30/01:30pm 32.7 29.3 10.7 26 12.8 N 19 22 10 12 1014.4 1013.4 0.0
30/01:00pm 33.0 31.2 10.9 26 12.9 S 11 17 6 9 1015.0 1014.1 0.0
30/12:30pm 32.6 30.7 11.7 28 12.4 N 13 22 7 12 1015.6 1014.7 0.0
30/12:00pm 32.4 31.1 12.6 30 11.9 N 11 20 6 11 1016.1 1015.2 0.0
30/11:30am 31.3 29.6 12.6 31 11.2 NNE 13 20 7 11 1016.8 1015.9 0.0
30/11:00am 30.4 28.3 12.3 33 10.7 NNE 15 24 8 13 1017.2 1016.3 0.0
30/10:30am 30.9 28.7 13.2 34 10.6 NNE 17 28 9 15 1017.3 1016.4 0.0
30/10:00am 29.7 27.0 13.0 35 10.0 NE 19 26 10 14 1017.4 1016.5 0.0
30/09:30am 29.3 25.8 13.5 38 9.5 NE 24 30 13 16 1017.6 1016.7 0.0
30/09:00am 28.0 26.1 13.1 39 8.8 N 15 20 8 11 1017.6 1016.7 0.0
30/08:30am 26.6 23.5 11.5 39 8.7 NNE 19 26 10 14 1017.5 1016.6 0.0
30/08:00am 25.7 22.3 5.8 28 10.3 ENE 13 17 7 9 1017.0 1016.1 0.0
30/07:30am 24.4 20.7 2.5 24 10.6 E 11 15 6 8 1016.5 1015.6 0.0
30/07:00am 22.9 19.6 2.4 26 9.8 ESE 9 11 5 6 1016.0 1015.1 0.0
30/06:30am 22.1 19.1 2.2 27 9.4 SE 7 9 4 5 1015.4 1014.5 0.0
30/06:00am 21.9 18.5 2.1 27 9.3 S 9 9 5 5 1015.2 1014.3 0.0
30/05:30am 23.1 19.7 2.0 25 10.0 SE 9 11 5 6 1014.8 1013.9 0.0
30/05:00am 23.8 20.4 2.0 24 10.4 ESE 9 11 5 6 1014.3 1013.3 0.0
30/04:30am 24.3 20.6 2.5 24 10.5 E 11 17 6 9 1013.8 1012.8 0.0
30/04:00am 24.9 20.6 3.0 24 10.7 ESE 15 20 8 11 1013.4 1012.5 0.0
30/03:30am 25.9 21.0 4.9 26 10.7 ESE 20 32 11 17 1013.1 1012.2 0.0
30/03:00am 25.1 20.8 6.8 31 9.6 SE 19 24 10 13 1013.1 1012.2 0.0
30/02:30am 22.5 20.3 3.1 28 9.4 SW 4 7 2 4 1013.0 1012.1 0.0
30/02:00am 23.3 21.6 3.8 28 9.6 WNW 2 6 1 3 1013.3 1012.4 0.0
30/01:30am 23.0 20.5 5.0 31 9.0 NNW 7 13 4 7 1013.6 1012.6 0.0
30/01:00am 22.9 21.5 3.4 28 9.5 CALM 0 0 0 0 1013.4 1012.5 0.0
30/12:30am 24.8 22.2 4.0 26 10.4 E 7 11 4 6 1013.6 1012.6 0.0
30/12:00am 26.5 24.3 5.5 26 10.9 E 6 7 3 4 1013.9 1012.9 0.0
 
Date/Time
EST
Temp
°C
App
Temp
°C
Dew
Point
Rel
Hum
%
Delta-T
°C
Wind Press
QNH
hPa
Press
MSL
hPa
Rain
since 9 am
mm
Dir
 
Spd
km/h
Gust
km/h
Spd
kts
Gust
kts
29/11:30pm 26.2 24.7 5.2 26 10.8 ENE 2 7 1 4 1013.9 1012.9 0.0
29/11:00pm 26.1 24.9 4.6 25 10.9 CALM 0 0 0 0 1013.8 1012.8 0.0
29/10:30pm 27.8 25.3 4.8 23 11.9 ENE 7 11 4 6 1013.9 1012.9 0.0
29/10:00pm 28.3 25.1 5.2 23 12.0 NE 11 13 6 7 1013.9 1012.9 0.0
29/09:30pm 29.3 26.2 5.4 22 12.6 ENE 11 13 6 7 1013.8 1012.8 0.0
29/09:00pm 30.4 26.2 5.6 21 13.2 ENE 17 20 9 11 1013.4 1012.5 0.0
29/08:30pm 30.1 26.4 4.7 20 13.3 E 13 17 7 9 1013.1 1012.2 0.0
29/08:00pm 30.6 28.2 5.1 20 13.4 NNE 7 9 4 5 1012.6 1011.7 0.0
29/07:30pm 31.4 28.2 5.0 19 14.0 N 11 11 6 6 1012.3 1011.4 0.0
29/07:00pm 32.5 29.7 5.1 18 14.6 NNE 9 13 5 7 1012.0 1011.1 0.0
29/06:30pm 33.9 30.4 5.4 17 15.4 N 13 17 7 9 1011.5 1010.6 0.0
29/06:00pm 34.4 30.8 5.0 16 15.8 N 13 19 7 10 1011.2 1010.3 0.0
29/05:30pm 34.9 31.6 4.4 15 16.3 NNE 11 20 6 11 1011.2 1010.3 0.0
29/05:00pm 34.9 32.0 4.4 15 16.3 E 9 17 5 9 1011.0 1010.1 0.0
29/04:30pm 35.5 32.5 3.9 14 16.8 NE 9 24 5 13 1010.9 1010.0 0.0
29/04:00pm 35.2 31.5 4.7 15 16.4 ENE 13 20 7 11 1010.9 1010.0 0.0
29/03:30pm 35.5 32.5 3.9 14 16.8 ENE 9 20 5 11 1011.1 1010.2 0.0
29/03:00pm 35.0 31.7 4.5 15 16.3 NNE 11 24 6 13 1011.3 1010.4 0.0
29/02:30pm 34.7 31.2 3.3 14 16.5 N 11 22 6 12 1011.9 1011.0 0.0
29/02:00pm 34.7 30.4 3.3 14 16.5 NNE 15 24 8 13 1012.3 1011.4 0.0
29/01:30pm 34.0 31.1 2.8 14 16.2 NE 7 15 4 8 1012.8 1011.9 0.0
29/01:00pm 33.8 29.6 1.6 13 16.3 NE 13 24 7 13 1013.3 1012.4 0.0
29/12:30pm 34.2 30.6 2.9 14 16.2 NE 11 20 6 11 1014.0 1013.0 0.0
29/12:00pm 33.1 29.3 3.9 16 15.3 NE 13 24 7 13 1014.5 1013.5 0.0
29/11:30am 31.7 27.6 4.5 18 14.3 ENE 15 28 8 15 1015.0 1014.1 0.0
29/11:00am 30.6 26.0 3.6 18 13.9 NE 17 24 9 13 1015.5 1014.6 0.0
29/10:30am 30.4 26.0 2.6 17 14.0 NE 15 24 8 13 1015.8 1014.9 0.0
29/10:00am 29.0 24.3 0.7 16 13.7 ENE 15 26 8 14 1015.8 1014.9 0.0
29/09:30am 28.7 23.7 1.3 17 13.4 E 17 24 9 13 1015.7 1014.8 0.0
29/09:00am 28.2 23.4 2.4 19 12.8 ENE 17 24 9 13 1015.6 1014.7 0.0
29/08:30am 27.1 22.2 2.2 20 12.2 ESE 17 20 9 11 1015.5 1014.6 0.0
29/08:00am 25.8 20.5 1.8 21 11.6 ESE 19 22 10 12 1015.4 1014.5 0.0
29/07:30am 21.6 18.1 -1.6 21 10.2 N 7 9 4 5 1015.2 1014.3 0.0
29/07:00am 19.2 16.4 -3.0 22 9.2 S 2 9 1 5 1014.6 1013.6 0.0
29/06:30am 18.5 13.6 -3.0 23 8.9 S 13 15 7 8 1014.1 1013.1 0.0
29/06:00am 18.8 14.7 -3.3 22 9.1 S 9 9 5 5 1013.8 1012.8 0.0
29/05:30am 18.8 13.9 -3.3 22 9.1 S 13 15 7 8 1013.4 1012.5 0.0
29/05:00am 19.2 14.0 -3.0 22 9.3 S 15 17 8 9 1012.9 1012.0 0.0
29/04:30am 19.5 14.2 -3.4 21 9.5 S 15 15 8 8 1012.8 1011.9 0.0
29/04:00am 20.3 16.6 -2.7 21 9.7 SSE 7 11 4 6 1012.7 1011.8 0.0
29/03:30am 20.1 15.9 -3.5 20 9.8 S 9 13 5 7 1012.6 1011.7 0.0
29/03:00am 20.8 15.9 -3.0 20 10.1 S 13 17 7 9 1012.7 1011.8 0.0
29/02:30am 19.9 16.4 -3.0 21 9.6 S 6 11 3 6 1012.9 1012.0 0.0
29/02:00am 20.0 15.0 -4.3 19 9.9 S 13 15 7 8 1013.1 1012.2 0.0
29/01:30am 22.1 18.5 -3.3 18 10.8 SSW 6 9 3 5 1013.1 1012.2 0.0
29/01:00am 20.9 16.0 -3.6 19 10.3 SSW 13 15 7 8 1013.3 1012.4 0.0
29/12:30am 22.4 18.7 -3.1 18 10.9 SSW 7 9 4 5 1013.6 1012.6 0.0
29/12:00am 21.9 18.2 -4.2 17 10.9 SSW 6 7 3 4 1013.9 1012.9 0.0
 
Date/Time
EST
Temp
°C
App
Temp
°C
Dew
Point
Rel
Hum
%
Delta-T
°C
Wind Press
QNH
hPa
Press
MSL
hPa
Rain
since 9 am
mm
Dir
 
Spd
km/h
Gust
km/h
Spd
kts
Gust
kts
28/11:30pm 21.4 17.5 -1.8 21 10.1 SSW 9 11 5 6 1014.1 1013.1 0.0
28/11:00pm 21.0 17.3 -2.8 20 10.1 S 7 9 4 5 1014.3 1013.3 0.0
28/10:30pm 22.4 18.9 -1.6 20 10.6 SSE 7 7 4 4 1014.5 1013.5 0.0
28/10:00pm 22.7 19.1 -3.6 17 11.2 SSE 6 7 3 4 1014.4 1013.4 0.0
28/09:30pm 23.5 19.8 -4.6 15 11.8 SSE 6 7 3 4 1014.2 1013.2 0.0
28/09:00pm 25.9 21.6 -4.6 13 13.1 ESE 9 11 5 6 1014.0 1013.0 0.0
28/08:30pm 26.9 22.7 -3.8 13 13.5 E 9 11 5 6 1013.7 1012.7 0.0
28/08:00pm 28.6 24.1 -3.6 12 14.4 ESE 11 11 6 6 1013.3 1012.4 0.0
28/07:30pm 29.9 25.3 -3.7 11 15.2 ESE 11 13 6 7 1013.1 1012.2 0.0
28/07:00pm 31.0 27.3 -2.9 11 15.6 ESE 7 9 4 5 1012.9 1012.0 0.0
28/06:30pm 32.7 28.2 -2.9 10 16.6 SE 11 17 6 9 1012.6 1011.7 0.0
28/06:00pm 33.6 29.6 -2.2 10 17.0 SE 9 11 5 6 1012.4 1011.5 0.0
28/05:30pm 34.0 29.7 -1.9 10 17.2 SE 11 20 6 11 1012.3 1011.4 0.0
28/05:00pm 34.4 29.0 -1.6 10 17.4 SE 17 22 9 12 1012.1 1011.2 0.0
28/04:30pm 34.7 31.4 -1.4 10 17.5 NNW 6 26 3 14 1012.1 1011.2 0.0
28/04:00pm 35.0 31.2 -1.1 10 17.7 S 9 15 5 8 1012.3 1011.4 0.0
28/03:30pm 33.8 30.4 -2.0 10 17.1 SE 6 11 3 6 1012.5 1011.6 0.0
28/03:00pm 33.7 29.0 -2.1 10 17.1 N 13 20 7 11 1012.7 1011.8 0.0
28/02:30pm 33.7 29.3 -2.1 10 17.1 ENE 11 15 6 8 1013.2 1012.3 0.0
28/02:00pm 33.0 28.0 -1.4 11 16.5 ESE 15 26 8 14 1013.8 1012.8 0.0
28/01:30pm 32.8 28.5 -1.5 11 16.4 SSE 11 20 6 11 1014.3 1013.3 0.0
28/01:00pm 32.5 27.1 -1.7 11 16.3 E 17 30 9 16 1014.9 1014.0 0.0
28/12:30pm 32.0 27.6 -2.1 11 16.1 NNE 11 15 6 8 1015.4 1014.5 0.0
28/12:00pm 31.3 25.7 -2.6 11 15.7 E 17 28 9 15 1016.1 1015.2 0.0
28/11:30am 31.5 26.5 -1.3 12 15.6 ENE 15 32 8 17 1016.7 1015.8 0.0
28/11:00am 30.8 24.9 -1.9 12 15.3 ENE 19 26 10 14 1017.3 1016.4 0.0
28/10:30am 30.4 23.3 -1.1 13 14.9 ENE 26 33 14 18 1017.5 1016.6 0.0
28/10:00am 29.4 22.7 -0.9 14 14.3 ENE 24 32 13 17 1017.9 1017.0 0.0

Other Formats:

Comma delimited format used in spreadsheet applications
http://www.bom.gov.au/fwo/IDQ60801/IDQ60801.94335.axf

JavaScript Object Notation format (JSON) in row-major order
http://www.bom.gov.au/fwo/IDQ60801/IDQ60801.94335.json